createdAt,value
2019-03-16T00:01:57.109Z,46.54
2019-03-16T00:04:19.628Z,46.50
2019-03-16T00:06:48.026Z,46.58
2019-03-16T00:09:16.502Z,46.59
2019-03-16T00:11:45.030Z,46.58
2019-03-16T00:14:13.418Z,46.63
2019-03-16T00:16:41.810Z,46.58
2019-03-16T00:19:10.188Z,46.65
2019-03-16T00:21:38.586Z,46.60
2019-03-16T00:24:06.970Z,46.69
2019-03-16T00:26:35.356Z,46.59
2019-03-16T00:29:03.732Z,46.73
2019-03-16T00:31:32.124Z,46.68
2019-03-16T00:34:00.513Z,46.76
2019-03-16T00:36:28.908Z,46.70
2019-03-16T00:38:57.287Z,46.81
2019-03-16T00:41:25.677Z,46.75
2019-03-16T00:43:54.067Z,46.74
2019-03-16T00:46:22.454Z,46.75
2019-03-16T00:48:50.828Z,46.74
2019-03-16T00:51:19.223Z,46.78
2019-03-16T00:53:47.597Z,46.76
2019-03-16T00:56:16.833Z,46.77
2019-03-16T00:58:45.231Z,46.74
2019-03-16T01:01:13.926Z,46.73
2019-03-16T01:03:42.358Z,46.93
2019-03-16T01:06:10.743Z,47.14
2019-03-16T01:08:39.131Z,47.12
2019-03-16T01:11:07.678Z,47.04
2019-03-16T01:13:36.029Z,46.83
2019-03-16T01:16:04.496Z,46.68
2019-03-16T01:18:32.963Z,46.82
2019-03-16T01:21:01.354Z,46.83
2019-03-16T01:23:29.742Z,46.88
2019-03-16T01:25:58.131Z,46.88
2019-03-16T01:28:26.511Z,46.82
2019-03-16T01:30:54.892Z,46.95
2019-03-16T01:33:23.284Z,46.80
2019-03-16T01:35:51.661Z,46.81
2019-03-16T01:38:20.050Z,46.89
2019-03-16T01:40:48.434Z,46.89
2019-03-16T01:43:17.154Z,46.83
2019-03-16T01:45:45.569Z,46.91
2019-03-16T01:48:13.954Z,46.92
2019-03-16T01:50:42.328Z,46.87
2019-03-16T01:53:10.724Z,46.90
2019-03-16T01:55:39.106Z,46.95
2019-03-16T01:58:07.507Z,46.92
2019-03-16T02:00:35.890Z,46.91
2019-03-16T02:03:04.276Z,46.93
2019-03-16T02:05:32.656Z,46.94
2019-03-16T02:08:01.039Z,46.99
2019-03-16T02:10:29.403Z,47.02
2019-03-16T02:12:57.789Z,46.96
2019-03-16T02:15:26.151Z,46.97
2019-03-16T02:17:54.534Z,46.98
2019-03-16T02:20:22.908Z,47.05
2019-03-16T02:22:51.278Z,47.01
2019-03-16T02:25:19.909Z,47.05
2019-03-16T02:27:48.282Z,47.01
2019-03-16T02:30:17.445Z,47.10
2019-03-16T02:32:45.828Z,47.04
2019-03-16T02:35:14.341Z,47.04
2019-03-16T02:37:42.720Z,47.11
2019-03-16T02:40:11.704Z,47.06
2019-03-16T02:42:40.074Z,47.19
2019-03-16T02:45:09.903Z,47.08
2019-03-16T02:47:38.760Z,47.16
2019-03-16T02:50:09.152Z,47.17
2019-03-16T02:52:37.565Z,47.21
2019-03-16T02:55:08.355Z,47.20
2019-03-16T02:57:36.713Z,47.03
2019-03-16T03:00:12.784Z,47.03
2019-03-16T03:02:41.165Z,47.29
2019-03-16T03:05:10.169Z,47.27
2019-03-16T03:07:38.611Z,47.24
2019-03-16T03:10:12.925Z,47.23
2019-03-16T03:12:41.305Z,47.28
2019-03-16T03:15:10.621Z,47.29
2019-03-16T03:17:38.986Z,47.25
2019-03-16T03:20:09.157Z,47.30
2019-03-16T03:22:37.507Z,47.40
2019-03-16T03:25:06.454Z,47.39
2019-03-16T03:27:34.848Z,47.41
2019-03-16T03:30:03.519Z,47.57
2019-03-16T03:32:31.875Z,47.41
2019-03-16T03:35:00.680Z,47.60
2019-03-16T03:37:29.397Z,47.51
2019-03-16T03:39:57.791Z,47.50
2019-03-16T03:42:26.169Z,47.58
2019-03-16T03:44:54.560Z,47.58
2019-03-16T03:47:22.939Z,47.52
2019-03-16T03:49:51.308Z,47.55
2019-03-16T03:52:19.694Z,47.63
2019-03-16T03:54:48.066Z,47.70
2019-03-16T03:57:16.442Z,47.63
2019-03-16T03:59:44.825Z,47.65
2019-03-16T04:02:13.196Z,47.76
2019-03-16T04:04:41.790Z,47.79
2019-03-16T04:07:10.506Z,47.81
2019-03-16T04:09:38.896Z,47.89
2019-03-16T04:12:07.277Z,47.90
2019-03-16T04:14:35.643Z,47.91
2019-03-16T04:17:04.026Z,47.95
2019-03-16T04:19:32.411Z,47.96
2019-03-16T04:22:00.919Z,48.01
2019-03-16T04:24:29.297Z,48.07
2019-03-16T04:26:57.680Z,48.11
2019-03-16T04:29:26.060Z,48.12
2019-03-16T04:31:54.466Z,48.13
2019-03-16T04:34:29.081Z,48.10
2019-03-16T04:36:52.931Z,48.15
2019-03-16T04:39:21.333Z,48.18
2019-03-16T04:41:49.701Z,48.15
2019-03-16T04:44:18.495Z,48.22
2019-03-16T04:46:46.890Z,48.20
2019-03-16T04:49:15.269Z,48.11
2019-03-16T04:51:43.655Z,48.10
2019-03-16T04:54:12.018Z,48.21
2019-03-16T04:56:40.401Z,48.20
2019-03-16T04:59:08.781Z,48.25
2019-03-16T05:01:37.168Z,48.34
2019-03-16T05:04:06.821Z,48.70
2019-03-16T05:06:35.167Z,48.77
2019-03-16T05:09:05.105Z,48.82
2019-03-16T05:11:33.487Z,48.85
2019-03-16T05:14:01.864Z,48.77
2019-03-16T05:16:30.244Z,48.56
2019-03-16T05:18:58.614Z,48.38
2019-03-16T05:21:26.992Z,48.36
2019-03-16T05:23:55.371Z,48.34
2019-03-16T05:26:23.764Z,48.35
2019-03-16T05:28:52.115Z,48.34
2019-03-16T05:31:20.491Z,48.46
2019-03-16T05:33:49.073Z,48.61
2019-03-16T05:36:17.449Z,48.74
2019-03-16T05:38:45.819Z,48.75
2019-03-16T05:41:14.210Z,48.80
2019-03-16T05:43:42.583Z,48.82
2019-03-16T05:46:10.981Z,48.84
2019-03-16T05:48:39.353Z,48.90
2019-03-16T05:51:07.756Z,48.91
2019-03-16T05:53:36.120Z,48.95
2019-03-16T05:56:04.680Z,49.05
2019-03-16T05:58:33.056Z,49.10
2019-03-16T06:01:01.429Z,49.07
2019-03-16T06:03:29.792Z,49.25
2019-03-16T06:05:58.165Z,49.67
2019-03-16T06:08:26.542Z,49.32
2019-03-16T06:10:54.905Z,49.40
2019-03-16T06:13:23.293Z,49.20
2019-03-16T06:15:51.661Z,49.18
2019-03-16T06:18:20.031Z,49.29
2019-03-16T06:20:49.425Z,49.41
2019-03-16T06:23:17.805Z,49.67
2019-03-16T06:25:46.392Z,50.01
2019-03-16T06:28:14.787Z,50.41
2019-03-16T06:30:43.187Z,50.94
2019-03-16T06:33:11.576Z,51.73
2019-03-16T06:35:39.947Z,52.00
2019-03-16T06:38:08.320Z,52.18
2019-03-16T06:40:36.687Z,52.38
2019-03-16T06:43:05.074Z,52.52
2019-03-16T06:45:33.438Z,52.62
2019-03-16T06:48:01.812Z,52.68
2019-03-16T06:50:31.114Z,52.71
2019-03-16T06:52:59.500Z,52.96
2019-03-16T06:55:27.889Z,52.85
2019-03-16T06:57:56.273Z,52.98
2019-03-16T07:00:24.644Z,53.16
2019-03-16T07:02:53.081Z,53.03
2019-03-16T07:05:23.622Z,53.07
2019-03-16T07:07:51.564Z,53.04
2019-03-16T07:10:19.939Z,53.17
2019-03-16T07:12:48.321Z,53.05
2019-03-16T07:15:17.053Z,53.01
2019-03-16T07:17:45.430Z,53.08
2019-03-16T07:20:14.933Z,53.02
2019-03-16T07:22:43.313Z,53.10
2019-03-16T07:25:13.536Z,52.88
2019-03-16T07:27:41.930Z,52.64
2019-03-16T07:30:12.607Z,52.46
2019-03-16T07:32:40.993Z,52.17
2019-03-16T07:35:09.598Z,52.19
2019-03-16T07:37:37.969Z,52.33
2019-03-16T07:40:09.310Z,52.30
2019-03-16T07:42:37.688Z,52.25
2019-03-16T07:45:09.027Z,52.14
2019-03-16T07:47:37.558Z,52.41
2019-03-16T07:50:08.169Z,52.62
2019-03-16T07:52:36.542Z,52.93
2019-03-16T07:55:06.462Z,53.03
2019-03-16T07:57:40.220Z,52.84
2019-03-16T08:00:07.878Z,52.71
2019-03-16T08:02:36.252Z,52.64
2019-03-16T08:05:17.379Z,52.55
2019-03-16T08:07:35.965Z,52.43
2019-03-16T08:10:06.639Z,52.34
2019-03-16T08:12:35.051Z,52.25
2019-03-16T08:15:03.978Z,52.27
2019-03-16T08:17:32.389Z,52.23
2019-03-16T08:20:00.772Z,52.27
2019-03-16T08:22:29.138Z,52.08
2019-03-16T08:24:57.518Z,52.24
2019-03-16T08:27:25.885Z,52.10
2019-03-16T08:29:54.340Z,51.98
2019-03-16T08:32:25.330Z,51.99
2019-03-16T08:34:52.806Z,52.17
2019-03-16T08:37:21.177Z,52.21
2019-03-16T08:39:50.593Z,52.73
2019-03-16T08:42:18.953Z,52.87
2019-03-16T08:44:47.339Z,52.90
2019-03-16T08:47:15.709Z,52.75
2019-03-16T08:49:44.081Z,52.81
2019-03-16T08:52:12.451Z,52.81
2019-03-16T08:54:40.830Z,52.81
2019-03-16T08:57:09.199Z,52.81
2019-03-16T08:59:37.579Z,52.64
2019-03-16T09:02:06.023Z,52.55
2019-03-16T09:04:34.417Z,52.50
2019-03-16T09:07:02.780Z,52.29
2019-03-16T09:09:31.234Z,52.26
2019-03-16T09:11:59.604Z,52.24
2019-03-16T09:14:27.990Z,52.40
2019-03-16T09:16:56.367Z,52.62
2019-03-16T09:19:24.817Z,52.62
2019-03-16T09:21:53.191Z,52.39
2019-03-16T09:24:21.579Z,51.98
2019-03-16T09:26:49.998Z,51.98
2019-03-16T09:29:18.394Z,51.90
2019-03-16T09:31:46.870Z,52.00
2019-03-16T09:34:15.264Z,51.84
2019-03-16T09:36:43.674Z,51.77
2019-03-16T09:39:12.088Z,51.62
2019-03-16T09:41:40.462Z,51.51
2019-03-16T09:44:08.830Z,51.46
2019-03-16T09:46:37.219Z,51.35
2019-03-16T09:49:05.624Z,51.25
2019-03-16T09:51:33.996Z,51.10
2019-03-16T09:54:02.374Z,51.15
2019-03-16T09:56:30.749Z,51.19
2019-03-16T09:58:59.113Z,51.28
2019-03-16T10:01:27.495Z,51.15
2019-03-16T10:03:55.866Z,51.14
2019-03-16T10:06:24.250Z,51.20
2019-03-16T10:08:52.617Z,51.39
2019-03-16T10:11:21.207Z,51.53
2019-03-16T10:13:49.570Z,51.40
2019-03-16T10:16:17.952Z,51.32
2019-03-16T10:18:46.335Z,51.27
2019-03-16T10:21:14.708Z,51.47
2019-03-16T10:23:43.075Z,51.32
2019-03-16T10:26:11.458Z,51.49
2019-03-16T10:28:43.892Z,51.78
2019-03-16T10:31:09.929Z,52.18
2019-03-16T10:33:38.305Z,52.06
2019-03-16T10:36:06.742Z,52.06
2019-03-16T10:38:35.112Z,51.92
2019-03-16T10:41:03.487Z,52.00
2019-03-16T10:43:31.874Z,51.58
2019-03-16T10:46:00.253Z,51.53
2019-03-16T10:48:28.629Z,51.35
2019-03-16T10:50:56.994Z,51.08
2019-03-16T10:53:25.370Z,51.12
2019-03-16T10:55:53.748Z,50.92
2019-03-16T10:58:22.363Z,51.05
2019-03-16T11:00:53.160Z,50.98
2019-03-16T11:03:21.662Z,50.91
2019-03-16T11:05:50.029Z,50.78
2019-03-16T11:08:18.477Z,50.77
2019-03-16T11:10:46.865Z,50.68
2019-03-16T11:13:15.245Z,50.74
2019-03-16T11:15:43.616Z,50.75
2019-03-16T11:18:12.045Z,50.67
2019-03-16T11:20:40.498Z,50.53
2019-03-16T11:23:08.934Z,50.50
2019-03-16T11:25:37.446Z,50.67
2019-03-16T11:28:05.824Z,50.79
2019-03-16T11:30:34.188Z,50.51
2019-03-16T11:33:02.591Z,50.37
2019-03-16T11:35:31.074Z,50.67
2019-03-16T11:38:00.575Z,50.58
2019-03-16T11:40:28.952Z,49.69
2019-03-16T11:42:57.348Z,49.69
2019-03-16T11:45:25.723Z,49.95
2019-03-16T11:47:54.199Z,49.72
2019-03-16T11:50:22.577Z,49.52
2019-03-16T11:52:50.959Z,49.64
2019-03-16T11:55:19.394Z,49.65
2019-03-16T11:57:47.778Z,49.63
2019-03-16T12:00:16.599Z,49.83
2019-03-16T12:02:45.004Z,49.82
2019-03-16T12:05:13.481Z,49.73
2019-03-16T12:07:41.864Z,49.71
2019-03-16T12:10:11.377Z,49.90
2019-03-16T12:12:39.860Z,50.61
2019-03-16T12:15:09.870Z,50.47
2019-03-16T12:17:38.317Z,50.11
2019-03-16T12:20:11.611Z,50.02
2019-03-16T12:22:40.008Z,50.00
2019-03-16T12:25:08.690Z,50.08
2019-03-16T12:27:37.061Z,50.15
2019-03-16T12:30:10.853Z,49.97
2019-03-16T12:32:39.326Z,49.78
2019-03-16T12:35:08.655Z,49.76
2019-03-16T12:37:37.090Z,49.78
2019-03-16T12:40:13.456Z,49.83
2019-03-16T12:42:41.823Z,49.80
2019-03-16T12:45:20.978Z,49.63
2019-03-16T12:47:49.512Z,49.58
2019-03-16T12:50:17.907Z,49.69
2019-03-16T12:52:46.281Z,49.37
2019-03-16T12:55:14.678Z,49.08
2019-03-16T12:57:43.121Z,49.00
2019-03-16T13:00:19.441Z,48.96
2019-03-16T13:02:48.124Z,48.82
2019-03-16T13:05:16.515Z,48.78
2019-03-16T13:07:44.876Z,48.65
2019-03-16T13:10:18.190Z,48.64
2019-03-16T13:12:46.806Z,48.53
2019-03-16T13:17:42.643Z,48.40
2019-03-16T13:20:17.227Z,48.35
2019-03-16T13:22:45.721Z,48.37
2019-03-16T13:25:14.251Z,48.34
2019-03-16T13:27:42.689Z,48.26
2019-03-16T13:30:14.168Z,48.21
2019-03-16T13:32:42.539Z,48.24
2019-03-16T13:35:11.346Z,48.10
2019-03-16T13:37:39.722Z,47.95
2019-03-16T13:40:16.446Z,48.08
2019-03-16T13:42:44.890Z,47.94
2019-03-16T13:45:13.507Z,48.01
2019-03-16T13:47:42.140Z,47.93
2019-03-16T13:50:15.357Z,47.87
2019-03-16T13:52:43.992Z,47.83
2019-03-16T13:55:12.441Z,47.81
2019-03-16T13:57:40.829Z,47.80
2019-03-16T14:00:15.357Z,47.87
2019-03-16T14:02:43.727Z,47.52
2019-03-16T14:05:12.121Z,47.42
2019-03-16T14:07:40.782Z,47.44
2019-03-16T14:10:24.185Z,47.49
2019-03-16T14:12:53.145Z,47.52
2019-03-16T14:15:21.528Z,47.40
2019-03-16T14:17:49.924Z,47.43
2019-03-16T14:20:18.635Z,47.39
2019-03-16T14:22:47.020Z,47.36
2019-03-16T14:25:15.468Z,47.32
2019-03-16T14:27:43.840Z,47.36
2019-03-16T14:30:39.372Z,47.21
2019-03-16T14:32:51.923Z,47.31
2019-03-16T14:35:20.311Z,47.41
2019-03-16T14:37:50.312Z,47.17
2019-03-16T14:40:18.743Z,47.24
2019-03-16T14:42:47.141Z,47.23
2019-03-16T14:45:16.514Z,47.73
2019-03-16T14:47:44.975Z,47.73
2019-03-16T14:50:21.119Z,47.85
2019-03-16T14:52:49.489Z,47.71
2019-03-16T14:55:17.849Z,47.59
2019-03-16T14:57:46.336Z,47.60
2019-03-16T15:00:15.958Z,47.64
2019-03-16T15:02:46.166Z,47.51
2019-03-16T15:05:14.671Z,47.77
2019-03-16T15:07:43.072Z,47.07
2019-03-16T15:10:16.603Z,46.78
2019-03-16T15:12:44.987Z,46.59
2019-03-16T15:15:17.820Z,46.71
2019-03-16T15:17:46.198Z,46.80
2019-03-16T15:20:14.705Z,46.92
2019-03-16T15:22:43.260Z,46.81
2019-03-16T15:25:12.650Z,46.65
2019-03-16T15:27:41.165Z,46.63
2019-03-16T15:30:12.672Z,46.61
2019-03-16T15:32:41.068Z,46.57
2019-03-16T15:35:10.003Z,46.52
2019-03-16T15:37:38.407Z,46.61
2019-03-16T15:40:09.819Z,46.66
2019-03-16T15:42:38.193Z,46.69
2019-03-16T15:45:09.608Z,46.70
2019-03-16T15:47:37.996Z,46.68
2019-03-16T15:50:08.427Z,46.69
2019-03-16T15:52:37.732Z,46.61
2019-03-16T15:55:06.993Z,46.75
2019-03-16T15:57:35.371Z,46.65
2019-03-16T16:00:06.042Z,46.69
2019-03-16T16:02:34.428Z,46.82
2019-03-16T16:05:02.796Z,45.03
2019-03-16T16:07:31.176Z,45.13
2019-03-16T16:09:59.553Z,44.57
2019-03-16T16:12:27.931Z,44.30
2019-03-16T16:14:56.325Z,44.86
2019-03-16T16:17:24.713Z,45.00
2019-03-16T16:19:53.921Z,44.97
2019-03-16T16:22:23.952Z,45.07
2019-03-16T16:24:52.312Z,45.05
2019-03-16T16:27:20.694Z,44.78
2019-03-16T16:29:49.070Z,43.73
2019-03-16T16:32:17.446Z,43.73
2019-03-16T16:34:45.827Z,43.90
2019-03-16T16:37:14.269Z,44.13
2019-03-16T16:39:42.726Z,44.27
2019-03-16T16:42:11.094Z,44.41
2019-03-16T16:44:39.481Z,44.62
2019-03-16T16:47:07.848Z,44.81
2019-03-16T16:49:36.239Z,44.89
2019-03-16T16:52:04.612Z,45.00
2019-03-16T16:54:32.990Z,45.04
2019-03-16T16:57:01.355Z,45.10
2019-03-16T16:59:29.746Z,45.12
2019-03-16T17:01:58.137Z,45.11
2019-03-16T17:04:26.490Z,45.10
2019-03-16T17:06:54.861Z,45.06
2019-03-16T17:09:23.301Z,45.30
2019-03-16T17:11:51.754Z,45.37
2019-03-16T17:14:20.354Z,45.62
2019-03-16T17:16:48.785Z,45.73
2019-03-16T17:19:17.167Z,45.92
2019-03-16T17:21:45.609Z,45.82
2019-03-16T17:24:13.986Z,45.83
2019-03-16T17:26:42.362Z,45.85
2019-03-16T17:29:10.764Z,45.86
2019-03-16T17:31:42.447Z,45.85
2019-03-16T17:34:09.439Z,45.93
2019-03-16T17:36:37.826Z,45.94
2019-03-16T17:39:07.123Z,46.02
2019-03-16T17:41:35.564Z,46.21
2019-03-16T17:44:04.421Z,46.27
2019-03-16T17:46:32.901Z,46.44
2019-03-16T17:49:01.277Z,46.48
2019-03-16T17:51:29.648Z,46.42
2019-03-16T17:53:58.031Z,46.38
2019-03-16T17:56:26.396Z,46.54
2019-03-16T17:58:54.983Z,46.49
2019-03-16T18:01:23.360Z,46.60
2019-03-16T18:03:51.733Z,46.52
2019-03-16T18:06:20.190Z,46.63
2019-03-16T18:08:48.569Z,46.38
2019-03-16T18:11:17.017Z,46.38
2019-03-16T18:13:45.379Z,46.63
2019-03-16T18:16:13.764Z,46.84
2019-03-16T18:18:42.145Z,47.01
2019-03-16T18:21:10.606Z,46.87
2019-03-16T18:23:38.971Z,46.40
2019-03-16T18:26:07.355Z,46.12
2019-03-16T18:28:35.754Z,45.94
2019-03-16T18:31:04.220Z,45.66
2019-03-16T18:33:32.578Z,45.17
2019-03-16T18:36:01.053Z,45.04
2019-03-16T18:38:29.484Z,45.02
2019-03-16T18:40:57.869Z,45.19
2019-03-16T18:43:26.243Z,45.19
2019-03-16T18:45:55.209Z,45.20
2019-03-16T18:48:23.584Z,45.19
2019-03-16T18:50:51.964Z,45.26
2019-03-16T18:53:20.396Z,45.46
2019-03-16T18:55:48.772Z,45.45
2019-03-16T18:58:17.154Z,45.61
2019-03-16T19:00:45.527Z,45.92
2019-03-16T19:03:13.895Z,46.06
2019-03-16T19:05:42.329Z,47.73
2019-03-16T19:08:10.694Z,50.48
2019-03-16T19:10:39.086Z,50.80
2019-03-16T19:13:07.442Z,51.65
2019-03-16T19:15:35.815Z,52.20
2019-03-16T19:18:04.324Z,51.32
2019-03-16T19:20:32.798Z,51.51
2019-03-16T19:23:01.329Z,52.20
2019-03-16T19:25:29.941Z,52.13
2019-03-16T19:27:58.335Z,52.26
2019-03-16T19:30:26.783Z,51.96
2019-03-16T19:32:55.562Z,52.42
2019-03-16T19:35:23.930Z,53.22
2019-03-16T19:37:52.323Z,52.80
2019-03-16T19:40:23.175Z,52.21
2019-03-16T19:42:51.597Z,51.81
2019-03-16T19:45:19.966Z,51.99
2019-03-16T19:47:48.346Z,51.84
2019-03-16T19:50:17.639Z,51.39
2019-03-16T19:52:46.019Z,51.56
2019-03-16T19:55:14.843Z,52.07
2019-03-16T19:57:43.299Z,51.89
2019-03-16T20:00:14.085Z,52.39
2019-03-16T20:02:50.204Z,52.33
2019-03-16T20:05:13.200Z,53.58
2019-03-16T20:07:41.642Z,53.66
2019-03-16T20:10:20.186Z,53.72
2019-03-16T20:12:48.652Z,54.03
2019-03-16T20:15:17.219Z,53.13
2019-03-16T20:17:45.656Z,52.71
2019-03-16T20:20:16.130Z,52.48
2019-03-16T20:22:44.539Z,52.85
2019-03-16T20:25:13.004Z,52.48
2019-03-16T20:27:41.507Z,52.79
2019-03-16T20:30:14.037Z,53.10
2019-03-16T20:32:42.486Z,53.04
2019-03-16T20:35:10.921Z,53.45
2019-03-16T20:37:39.317Z,53.99
2019-03-16T20:40:15.113Z,53.61
2019-03-16T20:42:43.570Z,53.46
2019-03-16T20:45:12.910Z,53.43
2019-03-16T20:47:41.250Z,53.64
2019-03-16T20:50:19.905Z,54.15
2019-03-16T20:52:48.468Z,54.67
2019-03-16T20:55:16.924Z,54.99
2019-03-16T20:57:45.309Z,55.05
2019-03-16T21:00:15.499Z,55.33
2019-03-16T21:02:43.881Z,55.60
2019-03-16T21:05:12.387Z,55.96
2019-03-16T21:07:40.774Z,55.68
2019-03-16T21:10:10.788Z,55.97
2019-03-16T21:12:39.253Z,56.64
2019-03-16T21:15:10.673Z,56.49
2019-03-16T21:17:39.054Z,56.80
2019-03-16T21:20:10.880Z,56.77
2019-03-16T21:22:39.415Z,57.05
2019-03-16T21:25:09.784Z,57.21
2019-03-16T21:27:38.201Z,57.36
2019-03-16T21:30:09.590Z,57.90
2019-03-16T21:32:37.965Z,57.85
2019-03-16T21:35:07.796Z,57.98
2019-03-16T21:37:36.324Z,58.21
2019-03-16T21:40:07.180Z,58.38
2019-03-16T21:42:35.577Z,58.24
2019-03-16T21:45:04.697Z,58.44
2019-03-16T21:47:33.140Z,58.78
2019-03-16T21:50:01.530Z,58.96
2019-03-16T21:52:29.902Z,59.22
2019-03-16T21:54:58.328Z,59.15
2019-03-16T21:57:26.924Z,59.28
2019-03-16T21:59:55.566Z,59.56
2019-03-16T22:02:23.936Z,59.22
2019-03-16T22:04:52.318Z,59.78
2019-03-16T22:07:20.687Z,59.69
2019-03-16T22:09:49.080Z,59.28
2019-03-16T22:12:17.444Z,59.42
2019-03-16T22:14:45.830Z,59.33
2019-03-16T22:17:14.276Z,59.41
2019-03-16T22:19:42.669Z,59.64
2019-03-16T22:22:11.047Z,59.50
2019-03-16T22:24:39.433Z,59.62
2019-03-16T22:27:07.812Z,59.89
2019-03-16T22:29:36.200Z,59.92
2019-03-16T22:32:04.672Z,59.92
2019-03-16T22:34:33.017Z,60.32
2019-03-16T22:37:01.391Z,60.42
2019-03-16T22:39:29.773Z,60.67
2019-03-16T22:41:58.137Z,60.17
2019-03-16T22:44:26.886Z,59.65
2019-03-16T22:46:55.255Z,57.89
2019-03-16T22:49:23.711Z,56.59
2019-03-16T22:51:52.077Z,55.54
2019-03-16T22:54:20.449Z,54.90
2019-03-16T22:56:48.825Z,54.87
2019-03-16T22:59:17.217Z,54.49
2019-03-16T23:01:45.593Z,54.06
2019-03-16T23:04:13.956Z,53.79
2019-03-16T23:06:42.348Z,53.66
2019-03-16T23:09:10.714Z,53.44
2019-03-16T23:11:38.913Z,53.25
2019-03-16T23:14:07.277Z,53.26
2019-03-16T23:16:35.666Z,53.15
2019-03-16T23:19:04.047Z,53.20
2019-03-16T23:21:32.431Z,53.10
2019-03-16T23:24:00.813Z,53.07
2019-03-16T23:26:37.994Z,53.03
2019-03-16T23:28:59.313Z,52.91
2019-03-16T23:31:27.699Z,52.82
2019-03-16T23:33:56.081Z,52.95
2019-03-16T23:36:24.458Z,52.93
2019-03-16T23:38:52.825Z,52.87
2019-03-16T23:41:21.206Z,52.99
2019-03-16T23:43:49.583Z,52.98
2019-03-16T23:46:17.959Z,52.86
2019-03-16T23:48:46.338Z,52.85
2019-03-16T23:51:14.726Z,52.75
2019-03-16T23:53:43.106Z,52.82
2019-03-16T23:56:11.474Z,52.75
2019-03-16T23:58:39.849Z,52.71
